sensor_id;sensor_type;location;lat;lon;timestamp;P1;durP1;ratioP1;P2;durP2;ratioP2
20241;SDS011;10279;46.388;8.116;2023-11-19T00:00:08;1.10;;;1.00;;
20241;SDS011;10279;46.388;8.116;2023-11-19T00:02:40;1.00;;;0.90;;
20241;SDS011;10279;46.388;8.116;2023-11-19T00:05:09;1.67;;;1.23;;
20241;SDS011;10279;46.388;8.116;2023-11-19T00:07:39;3.47;;;1.50;;
20241;SDS011;10279;46.388;8.116;2023-11-19T00:10:10;2.20;;;1.47;;
20241;SDS011;10279;46.388;8.116;2023-11-19T00:12:46;1.30;;;1.10;;
20241;SDS011;10279;46.388;8.116;2023-11-19T00:15:15;1.00;;;0.90;;
20241;SDS011;10279;46.388;8.116;2023-11-19T00:17:45;1.03;;;0.93;;
20241;SDS011;10279;46.388;8.116;2023-11-19T00:20:16;1.47;;;1.10;;
20241;SDS011;10279;46.388;8.116;2023-11-19T00:22:44;1.23;;;1.13;;
20241;SDS011;10279;46.388;8.116;2023-11-19T00:25:18;1.57;;;1.07;;
20241;SDS011;10279;46.388;8.116;2023-11-19T00:27:47;0.90;;;0.90;;
20241;SDS011;10279;46.388;8.116;2023-11-19T00:30:14;0.70;;;0.70;;
20241;SDS011;10279;46.388;8.116;2023-11-19T00:32:42;1.50;;;0.60;;
20241;SDS011;10279;46.388;8.116;2023-11-19T00:35:09;1.00;;;0.90;;
20241;SDS011;10279;46.388;8.116;2023-11-19T00:37:45;1.73;;;1.00;;
20241;SDS011;10279;46.388;8.116;2023-11-19T00:40:14;1.47;;;1.37;;
20241;SDS011;10279;46.388;8.116;2023-11-19T00:42:44;1.33;;;1.20;;
20241;SDS011;10279;46.388;8.116;2023-11-19T00:45:11;0.93;;;0.87;;
20241;SDS011;10279;46.388;8.116;2023-11-19T00:47:40;1.37;;;0.97;;
20241;SDS011;10279;46.388;8.116;2023-11-19T00:50:07;1.73;;;0.90;;
20241;SDS011;10279;46.388;8.116;2023-11-19T00:52:38;0.80;;;0.70;;
20241;SDS011;10279;46.388;8.116;2023-11-19T00:55:06;0.83;;;0.83;;
20241;SDS011;10279;46.388;8.116;2023-11-19T00:57:34;0.60;;;0.60;;
20241;SDS011;10279;46.388;8.116;2023-11-19T01:00:02;0.97;;;0.80;;
20241;SDS011;10279;46.388;8.116;2023-11-19T01:02:47;0.90;;;0.70;;
20241;SDS011;10279;46.388;8.116;2023-11-19T01:05:18;2.37;;;0.87;;
20241;SDS011;10279;46.388;8.116;2023-11-19T01:07:49;1.13;;;0.83;;
20241;SDS011;10279;46.388;8.116;2023-11-19T01:10:16;0.80;;;0.60;;
20241;SDS011;10279;46.388;8.116;2023-11-19T01:12:45;0.47;;;0.43;;
20241;SDS011;10279;46.388;8.116;2023-11-19T01:15:13;0.63;;;0.50;;
20241;SDS011;10279;46.388;8.116;2023-11-19T01:17:40;0.40;;;0.40;;
20241;SDS011;10279;46.388;8.116;2023-11-19T01:20:19;0.43;;;0.43;;
20241;SDS011;10279;46.388;8.116;2023-11-19T01:22:47;3.33;;;0.60;;
20241;SDS011;10279;46.388;8.116;2023-11-19T01:25:15;0.60;;;0.57;;
20241;SDS011;10279;46.388;8.116;2023-11-19T01:27:43;0.40;;;0.40;;
20241;SDS011;10279;46.388;8.116;2023-11-19T01:30:10;1.00;;;0.70;;
20241;SDS011;10279;46.388;8.116;2023-11-19T01:32:39;2.33;;;0.80;;
20241;SDS011;10279;46.388;8.116;2023-11-19T01:35:07;1.00;;;0.90;;
20241;SDS011;10279;46.388;8.116;2023-11-19T01:37:35;3.07;;;1.30;;
20241;SDS011;10279;46.388;8.116;2023-11-19T01:40:02;2.10;;;1.20;;
20241;SDS011;10279;46.388;8.116;2023-11-19T01:42:36;0.73;;;0.73;;
20241;SDS011;10279;46.388;8.116;2023-11-19T01:45:07;2.30;;;0.70;;
20241;SDS011;10279;46.388;8.116;2023-11-19T01:47:36;0.40;;;0.40;;
20241;SDS011;10279;46.388;8.116;2023-11-19T01:50:05;0.87;;;0.80;;
20241;SDS011;10279;46.388;8.116;2023-11-19T01:52:34;0.77;;;0.50;;
20241;SDS011;10279;46.388;8.116;2023-11-19T01:55:06;2.83;;;0.70;;
20241;SDS011;10279;46.388;8.116;2023-11-19T01:57:36;0.63;;;0.63;;
20241;SDS011;10279;46.388;8.116;2023-11-19T02:00:05;0.60;;;0.60;;
20241;SDS011;10279;46.388;8.116;2023-11-19T02:02:38;0.50;;;0.47;;
20241;SDS011;10279;46.388;8.116;2023-11-19T02:05:07;0.53;;;0.53;;
20241;SDS011;10279;46.388;8.116;2023-11-19T02:07:34;0.77;;;0.50;;
20241;SDS011;10279;46.388;8.116;2023-11-19T02:10:01;0.50;;;0.50;;
20241;SDS011;10279;46.388;8.116;2023-11-19T02:12:29;0.93;;;0.57;;
20241;SDS011;10279;46.388;8.116;2023-11-19T02:14:56;0.70;;;0.40;;
20241;SDS011;10279;46.388;8.116;2023-11-19T02:17:29;0.67;;;0.63;;
20241;SDS011;10279;46.388;8.116;2023-11-19T02:20:01;0.47;;;0.47;;
20241;SDS011;10279;46.388;8.116;2023-11-19T02:22:29;1.63;;;0.60;;
20241;SDS011;10279;46.388;8.116;2023-11-19T02:24:59;0.40;;;0.40;;
20241;SDS011;10279;46.388;8.116;2023-11-19T02:30:07;0.40;;;0.40;;
20241;SDS011;10279;46.388;8.116;2023-11-19T02:32:35;0.43;;;0.43;;
20241;SDS011;10279;46.388;8.116;2023-11-19T02:35:02;0.70;;;0.60;;
20241;SDS011;10279;46.388;8.116;2023-11-19T02:37:32;1.83;;;0.40;;
20241;SDS011;10279;46.388;8.116;2023-11-19T02:39:59;0.97;;;0.60;;
20241;SDS011;10279;46.388;8.116;2023-11-19T02:42:29;0.50;;;0.50;;
20241;SDS011;10279;46.388;8.116;2023-11-19T02:44:56;0.60;;;0.60;;
20241;SDS011;10279;46.388;8.116;2023-11-19T02:47:24;0.70;;;0.70;;
20241;SDS011;10279;46.388;8.116;2023-11-19T02:49:51;0.47;;;0.47;;
20241;SDS011;10279;46.388;8.116;2023-11-19T02:52:19;1.03;;;0.30;;
20241;SDS011;10279;46.388;8.116;2023-11-19T02:54:46;1.27;;;0.67;;
20241;SDS011;10279;46.388;8.116;2023-11-19T02:57:13;1.90;;;0.70;;
20241;SDS011;10279;46.388;8.116;2023-11-19T02:59:44;0.50;;;0.50;;
20241;SDS011;10279;46.388;8.116;2023-11-19T03:02:11;0.80;;;0.73;;
20241;SDS011;10279;46.388;8.116;2023-11-19T03:04:38;0.30;;;0.30;;
20241;SDS011;10279;46.388;8.116;2023-11-19T03:07:10;0.90;;;0.50;;
20241;SDS011;10279;46.388;8.116;2023-11-19T03:09:38;0.97;;;0.40;;
20241;SDS011;10279;46.388;8.116;2023-11-19T03:12:07;0.50;;;0.30;;
20241;SDS011;10279;46.388;8.116;2023-11-19T03:14:34;1.30;;;0.67;;
20241;SDS011;10279;46.388;8.116;2023-11-19T03:17:02;0.47;;;0.47;;
20241;SDS011;10279;46.388;8.116;2023-11-19T03:19:30;1.03;;;0.60;;
20241;SDS011;10279;46.388;8.116;2023-11-19T03:21:57;1.63;;;1.47;;
20241;SDS011;10279;46.388;8.116;2023-11-19T03:24:26;0.47;;;0.43;;
20241;SDS011;10279;46.388;8.116;2023-11-19T03:26:53;0.60;;;0.43;;
20241;SDS011;10279;46.388;8.116;2023-11-19T03:29:20;0.50;;;0.50;;
20241;SDS011;10279;46.388;8.116;2023-11-19T03:31:47;1.90;;;0.57;;
20241;SDS011;10279;46.388;8.116;2023-11-19T03:34:14;7.63;;;1.60;;
20241;SDS011;10279;46.388;8.116;2023-11-19T03:36:42;0.50;;;0.40;;
20241;SDS011;10279;46.388;8.116;2023-11-19T03:39:09;0.40;;;0.40;;
20241;SDS011;10279;46.388;8.116;2023-11-19T03:41:36;0.33;;;0.33;;
20241;SDS011;10279;46.388;8.116;2023-11-19T03:44:06;0.40;;;0.40;;
20241;SDS011;10279;46.388;8.116;2023-11-19T03:46:33;0.50;;;0.50;;
20241;SDS011;10279;46.388;8.116;2023-11-19T03:49:01;0.70;;;0.60;;
20241;SDS011;10279;46.388;8.116;2023-11-19T03:51:30;1.00;;;0.40;;
20241;SDS011;10279;46.388;8.116;2023-11-19T03:53:58;0.60;;;0.60;;
20241;SDS011;10279;46.388;8.116;2023-11-19T03:56:25;1.90;;;0.70;;
20241;SDS011;10279;46.388;8.116;2023-11-19T03:58:53;1.37;;;0.50;;
20241;SDS011;10279;46.388;8.116;2023-11-19T04:01:20;0.53;;;0.50;;
20241;SDS011;10279;46.388;8.116;2023-11-19T04:03:47;0.70;;;0.53;;
20241;SDS011;10279;46.388;8.116;2023-11-19T04:06:17;2.47;;;0.60;;
20241;SDS011;10279;46.388;8.116;2023-11-19T04:08:45;0.40;;;0.40;;
20241;SDS011;10279;46.388;8.116;2023-11-19T04:11:12;0.60;;;0.40;;
20241;SDS011;10279;46.388;8.116;2023-11-19T04:13:39;0.50;;;0.43;;
20241;SDS011;10279;46.388;8.116;2023-11-19T04:16:06;0.57;;;0.57;;
20241;SDS011;10279;46.388;8.116;2023-11-19T04:18:34;0.67;;;0.67;;
20241;SDS011;10279;46.388;8.116;2023-11-19T04:21:01;0.73;;;0.60;;
20241;SDS011;10279;46.388;8.116;2023-11-19T04:23:28;0.60;;;0.60;;
20241;SDS011;10279;46.388;8.116;2023-11-19T04:25:55;0.50;;;0.50;;
20241;SDS011;10279;46.388;8.116;2023-11-19T04:28:37;0.50;;;0.50;;
20241;SDS011;10279;46.388;8.116;2023-11-19T04:31:04;1.13;;;0.60;;
20241;SDS011;10279;46.388;8.116;2023-11-19T04:33:32;1.23;;;0.53;;
20241;SDS011;10279;46.388;8.116;2023-11-19T04:35:59;0.83;;;0.50;;
20241;SDS011;10279;46.388;8.116;2023-11-19T04:38:26;0.53;;;0.40;;
20241;SDS011;10279;46.388;8.116;2023-11-19T04:40:53;0.70;;;0.70;;
20241;SDS011;10279;46.388;8.116;2023-11-19T04:43:24;0.60;;;0.60;;
20241;SDS011;10279;46.388;8.116;2023-11-19T04:45:51;0.40;;;0.40;;
20241;SDS011;10279;46.388;8.116;2023-11-19T04:48:18;0.43;;;0.40;;
20241;SDS011;10279;46.388;8.116;2023-11-19T04:50:45;0.73;;;0.33;;
20241;SDS011;10279;46.388;8.116;2023-11-19T04:53:12;0.50;;;0.50;;
20241;SDS011;10279;46.388;8.116;2023-11-19T04:55:40;2.13;;;0.40;;
20241;SDS011;10279;46.388;8.116;2023-11-19T04:58:07;0.40;;;0.40;;
20241;SDS011;10279;46.388;8.116;2023-11-19T05:00:35;0.43;;;0.40;;
20241;SDS011;10279;46.388;8.116;2023-11-19T05:03:02;0.40;;;0.40;;
20241;SDS011;10279;46.388;8.116;2023-11-19T05:05:29;0.60;;;0.50;;
20241;SDS011;10279;46.388;8.116;2023-11-19T05:07:56;0.53;;;0.47;;
20241;SDS011;10279;46.388;8.116;2023-11-19T05:10:23;0.83;;;0.60;;
20241;SDS011;10279;46.388;8.116;2023-11-19T05:12:51;0.50;;;0.50;;
20241;SDS011;10279;46.388;8.116;2023-11-19T05:15:18;0.50;;;0.50;;
20241;SDS011;10279;46.388;8.116;2023-11-19T05:17:46;1.53;;;0.40;;
20241;SDS011;10279;46.388;8.116;2023-11-19T05:20:13;0.50;;;0.50;;
20241;SDS011;10279;46.388;8.116;2023-11-19T05:22:43;0.60;;;0.60;;
20241;SDS011;10279;46.388;8.116;2023-11-19T05:25:10;0.33;;;0.33;;
20241;SDS011;10279;46.388;8.116;2023-11-19T05:27:38;0.70;;;0.50;;
20241;SDS011;10279;46.388;8.116;2023-11-19T05:30:05;0.50;;;0.50;;
20241;SDS011;10279;46.388;8.116;2023-11-19T05:32:37;0.73;;;0.43;;
20241;SDS011;10279;46.388;8.116;2023-11-19T05:35:05;0.30;;;0.30;;
20241;SDS011;10279;46.388;8.116;2023-11-19T05:37:33;0.50;;;0.50;;
20241;SDS011;10279;46.388;8.116;2023-11-19T05:40:01;0.40;;;0.30;;
20241;SDS011;10279;46.388;8.116;2023-11-19T05:42:38;1.83;;;0.60;;
20241;SDS011;10279;46.388;8.116;2023-11-19T05:45:06;1.03;;;0.30;;
20241;SDS011;10279;46.388;8.116;2023-11-19T05:47:34;0.53;;;0.53;;
20241;SDS011;10279;46.388;8.116;2023-11-19T05:50:01;0.60;;;0.40;;
20241;SDS011;10279;46.388;8.116;2023-11-19T05:52:28;1.17;;;0.40;;
20241;SDS011;10279;46.388;8.116;2023-11-19T05:55:00;0.73;;;0.50;;
20241;SDS011;10279;46.388;8.116;2023-11-19T05:57:31;0.43;;;0.30;;
20241;SDS011;10279;46.388;8.116;2023-11-19T06:00:12;0.50;;;0.50;;
20241;SDS011;10279;46.388;8.116;2023-11-19T06:02:42;1.47;;;0.80;;
20241;SDS011;10279;46.388;8.116;2023-11-19T06:05:09;0.60;;;0.53;;
20241;SDS011;10279;46.388;8.116;2023-11-19T06:07:36;2.37;;;0.80;;
20241;SDS011;10279;46.388;8.116;2023-11-19T06:10:05;2.37;;;0.90;;
20241;SDS011;10279;46.388;8.116;2023-11-19T06:12:33;0.50;;;0.50;;
20241;SDS011;10279;46.388;8.116;2023-11-19T06:15:07;0.27;;;0.27;;
20241;SDS011;10279;46.388;8.116;2023-11-19T06:17:35;0.43;;;0.40;;
20241;SDS011;10279;46.388;8.116;2023-11-19T06:20:03;1.27;;;0.40;;
20241;SDS011;10279;46.388;8.116;2023-11-19T06:22:31;1.13;;;0.50;;
20241;SDS011;10279;46.388;8.116;2023-11-19T06:24:58;0.40;;;0.40;;
20241;SDS011;10279;46.388;8.116;2023-11-19T06:27:26;1.53;;;0.50;;
20241;SDS011;10279;46.388;8.116;2023-11-19T06:29:53;0.73;;;0.60;;
20241;SDS011;10279;46.388;8.116;2023-11-19T06:32:21;0.90;;;0.70;;
20241;SDS011;10279;46.388;8.116;2023-11-19T06:34:48;0.83;;;0.60;;
20241;SDS011;10279;46.388;8.116;2023-11-19T06:37:15;0.60;;;0.60;;
20241;SDS011;10279;46.388;8.116;2023-11-19T06:39:42;0.80;;;0.60;;
20241;SDS011;10279;46.388;8.116;2023-11-19T06:42:09;2.60;;;0.90;;
20241;SDS011;10279;46.388;8.116;2023-11-19T06:44:36;0.77;;;0.70;;
20241;SDS011;10279;46.388;8.116;2023-11-19T06:47:03;1.10;;;0.70;;
20241;SDS011;10279;46.388;8.116;2023-11-19T06:49:31;1.57;;;0.60;;
20241;SDS011;10279;46.388;8.116;2023-11-19T06:51:58;2.00;;;0.70;;
20241;SDS011;10279;46.388;8.116;2023-11-19T06:54:25;0.60;;;0.60;;
20241;SDS011;10279;46.388;8.116;2023-11-19T06:56:52;0.50;;;0.50;;
20241;SDS011;10279;46.388;8.116;2023-11-19T06:59:19;2.00;;;0.70;;
20241;SDS011;10279;46.388;8.116;2023-11-19T07:01:46;3.00;;;0.80;;
20241;SDS011;10279;46.388;8.116;2023-11-19T07:04:13;1.13;;;1.00;;
20241;SDS011;10279;46.388;8.116;2023-11-19T07:06:40;0.80;;;0.80;;
20241;SDS011;10279;46.388;8.116;2023-11-19T07:09:08;1.17;;;1.00;;
20241;SDS011;10279;46.388;8.116;2023-11-19T07:11:39;1.60;;;1.07;;
20241;SDS011;10279;46.388;8.116;2023-11-19T07:14:08;1.30;;;1.10;;
20241;SDS011;10279;46.388;8.116;2023-11-19T07:16:35;1.23;;;0.70;;
20241;SDS011;10279;46.388;8.116;2023-11-19T07:19:05;1.10;;;0.60;;
20241;SDS011;10279;46.388;8.116;2023-11-19T07:21:33;1.80;;;0.90;;
20241;SDS011;10279;46.388;8.116;2023-11-19T07:24:00;0.70;;;0.70;;
20241;SDS011;10279;46.388;8.116;2023-11-19T07:26:29;2.60;;;1.00;;
20241;SDS011;10279;46.388;8.116;2023-11-19T07:28:56;1.13;;;0.73;;
20241;SDS011;10279;46.388;8.116;2023-11-19T07:31:23;0.70;;;0.70;;
20241;SDS011;10279;46.388;8.116;2023-11-19T07:33:51;0.60;;;0.60;;
20241;SDS011;10279;46.388;8.116;2023-11-19T07:36:18;1.47;;;1.20;;
20241;SDS011;10279;46.388;8.116;2023-11-19T07:38:45;2.03;;;1.43;;
20241;SDS011;10279;46.388;8.116;2023-11-19T07:41:14;1.70;;;1.30;;
20241;SDS011;10279;46.388;8.116;2023-11-19T07:43:44;1.60;;;1.30;;
20241;SDS011;10279;46.388;8.116;2023-11-19T07:46:13;2.73;;;2.13;;
20241;SDS011;10279;46.388;8.116;2023-11-19T07:48:40;2.03;;;1.67;;
20241;SDS011;10279;46.388;8.116;2023-11-19T07:51:10;3.90;;;2.60;;
20241;SDS011;10279;46.388;8.116;2023-11-19T07:53:38;8.53;;;3.27;;
20241;SDS011;10279;46.388;8.116;2023-11-19T07:56:07;3.83;;;2.30;;
20241;SDS011;10279;46.388;8.116;2023-11-19T07:58:34;2.77;;;1.80;;
20241;SDS011;10279;46.388;8.116;2023-11-19T08:01:03;4.50;;;2.73;;
20241;SDS011;10279;46.388;8.116;2023-11-19T08:03:30;6.77;;;3.50;;
20241;SDS011;10279;46.388;8.116;2023-11-19T08:05:57;4.33;;;3.50;;
20241;SDS011;10279;46.388;8.116;2023-11-19T08:08:25;7.33;;;5.13;;
20241;SDS011;10279;46.388;8.116;2023-11-19T08:10:52;5.03;;;2.40;;
20241;SDS011;10279;46.388;8.116;2023-11-19T08:13:20;3.37;;;2.83;;
20241;SDS011;10279;46.388;8.116;2023-11-19T08:15:47;4.37;;;2.93;;
20241;SDS011;10279;46.388;8.116;2023-11-19T08:18:14;2.90;;;1.73;;
20241;SDS011;10279;46.388;8.116;2023-11-19T08:20:42;2.17;;;1.27;;
20241;SDS011;10279;46.388;8.116;2023-11-19T08:23:11;2.13;;;1.43;;
20241;SDS011;10279;46.388;8.116;2023-11-19T08:25:39;3.00;;;1.50;;
20241;SDS011;10279;46.388;8.116;2023-11-19T08:28:06;1.90;;;1.70;;
20241;SDS011;10279;46.388;8.116;2023-11-19T08:30:33;1.93;;;1.73;;
20241;SDS011;10279;46.388;8.116;2023-11-19T08:33:00;2.33;;;1.47;;
20241;SDS011;10279;46.388;8.116;2023-11-19T08:35:29;2.27;;;1.43;;
20241;SDS011;10279;46.388;8.116;2023-11-19T08:37:56;1.57;;;1.13;;
20241;SDS011;10279;46.388;8.116;2023-11-19T08:40:25;1.30;;;1.07;;
20241;SDS011;10279;46.388;8.116;2023-11-19T08:42:52;1.20;;;0.83;;
20241;SDS011;10279;46.388;8.116;2023-11-19T08:45:19;1.43;;;0.77;;
20241;SDS011;10279;46.388;8.116;2023-11-19T08:47:46;1.07;;;0.80;;
20241;SDS011;10279;46.388;8.116;2023-11-19T08:50:13;1.57;;;1.00;;
20241;SDS011;10279;46.388;8.116;2023-11-19T08:52:41;0.70;;;0.70;;
20241;SDS011;10279;46.388;8.116;2023-11-19T08:55:08;1.90;;;0.80;;
20241;SDS011;10279;46.388;8.116;2023-11-19T08:57:36;0.70;;;0.70;;
20241;SDS011;10279;46.388;8.116;2023-11-19T09:00:03;1.20;;;1.07;;
20241;SDS011;10279;46.388;8.116;2023-11-19T09:02:35;1.00;;;0.90;;
20241;SDS011;10279;46.388;8.116;2023-11-19T09:05:04;1.43;;;1.00;;
20241;SDS011;10279;46.388;8.116;2023-11-19T09:07:34;2.10;;;1.00;;
20241;SDS011;10279;46.388;8.116;2023-11-19T09:10:01;0.70;;;0.70;;
20241;SDS011;10279;46.388;8.116;2023-11-19T09:12:31;0.70;;;0.70;;
20241;SDS011;10279;46.388;8.116;2023-11-19T09:14:58;0.97;;;0.70;;
20241;SDS011;10279;46.388;8.116;2023-11-19T09:17:25;1.10;;;1.00;;
20241;SDS011;10279;46.388;8.116;2023-11-19T09:19:53;0.90;;;0.90;;
20241;SDS011;10279;46.388;8.116;2023-11-19T09:22:20;0.87;;;0.80;;
20241;SDS011;10279;46.388;8.116;2023-11-19T09:24:47;1.23;;;0.90;;
20241;SDS011;10279;46.388;8.116;2023-11-19T09:27:14;1.20;;;1.10;;
20241;SDS011;10279;46.388;8.116;2023-11-19T09:29:42;1.50;;;0.93;;
20241;SDS011;10279;46.388;8.116;2023-11-19T09:32:09;3.07;;;1.07;;
20241;SDS011;10279;46.388;8.116;2023-11-19T09:34:36;2.73;;;1.10;;
20241;SDS011;10279;46.388;8.116;2023-11-19T09:37:03;1.13;;;0.70;;
20241;SDS011;10279;46.388;8.116;2023-11-19T09:39:47;1.23;;;1.10;;
20241;SDS011;10279;46.388;8.116;2023-11-19T09:42:14;1.30;;;0.93;;
20241;SDS011;10279;46.388;8.116;2023-11-19T09:44:42;1.03;;;0.93;;
20241;SDS011;10279;46.388;8.116;2023-11-19T09:47:11;1.13;;;0.90;;
20241;SDS011;10279;46.388;8.116;2023-11-19T09:49:40;2.30;;;1.00;;
20241;SDS011;10279;46.388;8.116;2023-11-19T09:52:08;1.53;;;0.90;;
20241;SDS011;10279;46.388;8.116;2023-11-19T09:54:35;2.67;;;1.73;;
20241;SDS011;10279;46.388;8.116;2023-11-19T09:57:02;3.17;;;1.70;;
20241;SDS011;10279;46.388;8.116;2023-11-19T09:59:31;2.67;;;2.00;;
20241;SDS011;10279;46.388;8.116;2023-11-19T10:02:00;3.27;;;2.03;;
20241;SDS011;10279;46.388;8.116;2023-11-19T10:04:29;1.70;;;1.60;;
20241;SDS011;10279;46.388;8.116;2023-11-19T10:06:57;1.93;;;1.63;;
20241;SDS011;10279;46.388;8.116;2023-11-19T10:09:24;2.83;;;2.30;;
20241;SDS011;10279;46.388;8.116;2023-11-19T10:11:51;3.37;;;3.00;;
20241;SDS011;10279;46.388;8.116;2023-11-19T10:14:23;4.93;;;2.57;;
20241;SDS011;10279;46.388;8.116;2023-11-19T10:16:50;2.50;;;2.23;;
20241;SDS011;10279;46.388;8.116;2023-11-19T10:19:20;1.20;;;1.10;;
20241;SDS011;10279;46.388;8.116;2023-11-19T10:21:47;1.30;;;1.20;;
20241;SDS011;10279;46.388;8.116;2023-11-19T10:24:15;1.17;;;1.07;;
20241;SDS011;10279;46.388;8.116;2023-11-19T10:26:45;0.80;;;0.80;;
20241;SDS011;10279;46.388;8.116;2023-11-19T10:29:14;1.70;;;1.40;;
20241;SDS011;10279;46.388;8.116;2023-11-19T10:31:43;1.20;;;1.10;;
20241;SDS011;10279;46.388;8.116;2023-11-19T10:34:43;1.67;;;0.90;;
20241;SDS011;10279;46.388;8.116;2023-11-19T10:37:31;2.23;;;1.17;;
20241;SDS011;10279;46.388;8.116;2023-11-19T10:39:59;0.80;;;0.80;;
20241;SDS011;10279;46.388;8.116;2023-11-19T10:42:26;0.90;;;0.80;;
20241;SDS011;10279;46.388;8.116;2023-11-19T10:44:54;1.37;;;0.90;;
20241;SDS011;10279;46.388;8.116;2023-11-19T10:47:21;0.80;;;0.80;;
20241;SDS011;10279;46.388;8.116;2023-11-19T10:49:53;0.90;;;0.90;;
20241;SDS011;10279;46.388;8.116;2023-11-19T10:52:20;1.27;;;1.17;;
20241;SDS011;10279;46.388;8.116;2023-11-19T10:54:51;3.03;;;1.27;;
20241;SDS011;10279;46.388;8.116;2023-11-19T10:57:20;1.30;;;1.20;;
20241;SDS011;10279;46.388;8.116;2023-11-19T10:59:55;1.20;;;1.10;;
20241;SDS011;10279;46.388;8.116;2023-11-19T11:02:28;2.27;;;0.90;;
20241;SDS011;10279;46.388;8.116;2023-11-19T11:05:02;2.03;;;1.53;;
20241;SDS011;10279;46.388;8.116;2023-11-19T11:07:31;1.77;;;1.50;;
20241;SDS011;10279;46.388;8.116;2023-11-19T11:10:07;2.70;;;1.20;;
20241;SDS011;10279;46.388;8.116;2023-11-19T11:12:36;1.50;;;1.30;;
20241;SDS011;10279;46.388;8.116;2023-11-19T11:15:04;1.80;;;1.67;;
20241;SDS011;10279;46.388;8.116;2023-11-19T11:17:35;1.67;;;1.50;;
20241;SDS011;10279;46.388;8.116;2023-11-19T11:20:05;2.93;;;2.03;;
20241;SDS011;10279;46.388;8.116;2023-11-19T11:22:40;2.53;;;1.70;;
20241;SDS011;10279;46.388;8.116;2023-11-19T11:28:34;2.10;;;1.90;;
20241;SDS011;10279;46.388;8.116;2023-11-19T11:38:40;3.10;;;1.60;;
20241;SDS011;10279;46.388;8.116;2023-11-19T11:41:18;2.07;;;1.63;;
20241;SDS011;10279;46.388;8.116;2023-11-19T11:43:54;1.80;;;1.13;;
20241;SDS011;10279;46.388;8.116;2023-11-19T11:49:00;1.10;;;1.00;;
20241;SDS011;10279;46.388;8.116;2023-11-19T11:57:03;2.77;;;1.37;;
20241;SDS011;10279;46.388;8.116;2023-11-19T11:59:42;2.07;;;1.60;;
20241;SDS011;10279;46.388;8.116;2023-11-19T12:02:17;1.77;;;1.30;;
20241;SDS011;10279;46.388;8.116;2023-11-19T12:04:51;3.07;;;1.70;;
20241;SDS011;10279;46.388;8.116;2023-11-19T12:07:23;2.30;;;1.60;;
20241;SDS011;10279;46.388;8.116;2023-11-19T12:09:53;2.40;;;1.73;;
20241;SDS011;10279;46.388;8.116;2023-11-19T12:12:34;2.20;;;2.00;;
20241;SDS011;10279;46.388;8.116;2023-11-19T12:15:03;2.47;;;1.50;;
20241;SDS011;10279;46.388;8.116;2023-11-19T12:20:04;1.47;;;1.30;;
20241;SDS011;10279;46.388;8.116;2023-11-19T12:22:39;1.30;;;1.20;;
20241;SDS011;10279;46.388;8.116;2023-11-19T12:25:09;2.40;;;1.80;;
20241;SDS011;10279;46.388;8.116;2023-11-19T12:27:44;11.33;;;5.67;;
20241;SDS011;10279;46.388;8.116;2023-11-19T12:30:22;2.43;;;1.87;;
20241;SDS011;10279;46.388;8.116;2023-11-19T12:32:50;2.57;;;1.90;;
20241;SDS011;10279;46.388;8.116;2023-11-19T12:35:21;1.87;;;1.60;;
20241;SDS011;10279;46.388;8.116;2023-11-19T12:37:49;2.63;;;2.17;;
20241;SDS011;10279;46.388;8.116;2023-11-19T12:42:45;2.77;;;2.20;;
20241;SDS011;10279;46.388;8.116;2023-11-19T12:45:13;3.43;;;2.00;;
20241;SDS011;10279;46.388;8.116;2023-11-19T12:47:43;2.97;;;2.70;;
20241;SDS011;10279;46.388;8.116;2023-11-19T12:50:10;2.67;;;2.30;;
20241;SDS011;10279;46.388;8.116;2023-11-19T12:52:37;2.53;;;2.33;;
20241;SDS011;10279;46.388;8.116;2023-11-19T12:55:23;3.13;;;2.43;;
20241;SDS011;10279;46.388;8.116;2023-11-19T12:57:56;11.83;;;3.20;;
20241;SDS011;10279;46.388;8.116;2023-11-19T13:00:25;4.77;;;3.00;;
20241;SDS011;10279;46.388;8.116;2023-11-19T13:02:54;4.77;;;2.73;;
20241;SDS011;10279;46.388;8.116;2023-11-19T13:10:28;23.37;;;4.90;;
20241;SDS011;10279;46.388;8.116;2023-11-19T13:15:35;227.70;;;16.20;;
20241;SDS011;10279;46.388;8.116;2023-11-19T13:18:02;50.00;;;5.97;;
20241;SDS011;10279;46.388;8.116;2023-11-19T13:20:30;144.37;;;12.20;;
20241;SDS011;10279;46.388;8.116;2023-11-19T13:22:58;56.07;;;7.80;;
20241;SDS011;10279;46.388;8.116;2023-11-19T13:25:27;145.27;;;12.43;;
20241;SDS011;10279;46.388;8.116;2023-11-19T13:27:55;22.80;;;5.57;;
20241;SDS011;10279;46.388;8.116;2023-11-19T13:30:23;121.33;;;10.23;;
20241;SDS011;10279;46.388;8.116;2023-11-19T13:32:53;133.60;;;12.37;;
20241;SDS011;10279;46.388;8.116;2023-11-19T13:35:22;132.93;;;12.27;;
20241;SDS011;10279;46.388;8.116;2023-11-19T13:37:49;4.57;;;4.17;;
20241;SDS011;10279;46.388;8.116;2023-11-19T13:40:18;4.50;;;4.07;;
20241;SDS011;10279;46.388;8.116;2023-11-19T13:42:46;6.07;;;4.30;;
20241;SDS011;10279;46.388;8.116;2023-11-19T13:45:14;4.10;;;3.70;;
20241;SDS011;10279;46.388;8.116;2023-11-19T13:47:45;4.07;;;3.67;;
20241;SDS011;10279;46.388;8.116;2023-11-19T13:50:14;4.37;;;3.97;;
20241;SDS011;10279;46.388;8.116;2023-11-19T13:52:43;4.70;;;4.30;;
20241;SDS011;10279;46.388;8.116;2023-11-19T13:55:13;4.37;;;3.93;;
20241;SDS011;10279;46.388;8.116;2023-11-19T13:57:41;4.23;;;3.83;;
20241;SDS011;10279;46.388;8.116;2023-11-19T14:00:09;4.20;;;3.80;;
20241;SDS011;10279;46.388;8.116;2023-11-19T14:02:40;5.33;;;3.77;;
20241;SDS011;10279;46.388;8.116;2023-11-19T14:05:08;3.83;;;3.47;;
20241;SDS011;10279;46.388;8.116;2023-11-19T14:07:40;2.77;;;2.57;;
20241;SDS011;10279;46.388;8.116;2023-11-19T14:10:08;3.87;;;3.07;;
20241;SDS011;10279;46.388;8.116;2023-11-19T14:12:37;3.40;;;3.10;;
20241;SDS011;10279;46.388;8.116;2023-11-19T14:15:06;4.83;;;3.50;;
20241;SDS011;10279;46.388;8.116;2023-11-19T14:17:35;3.87;;;3.50;;
20241;SDS011;10279;46.388;8.116;2023-11-19T14:20:03;4.23;;;3.83;;
20241;SDS011;10279;46.388;8.116;2023-11-19T14:22:42;3.53;;;3.03;;
20241;SDS011;10279;46.388;8.116;2023-11-19T14:25:10;5.47;;;3.23;;
20241;SDS011;10279;46.388;8.116;2023-11-19T14:27:39;3.37;;;3.07;;
20241;SDS011;10279;46.388;8.116;2023-11-19T14:30:07;4.47;;;3.20;;
20241;SDS011;10279;46.388;8.116;2023-11-19T14:32:37;3.63;;;2.83;;
20241;SDS011;10279;46.388;8.116;2023-11-19T14:35:06;3.63;;;2.47;;
20241;SDS011;10279;46.388;8.116;2023-11-19T14:37:34;2.97;;;2.50;;
20241;SDS011;10279;46.388;8.116;2023-11-19T14:40:01;4.20;;;2.73;;
20241;SDS011;10279;46.388;8.116;2023-11-19T14:42:33;3.83;;;2.93;;
20241;SDS011;10279;46.388;8.116;2023-11-19T14:45:00;3.33;;;3.03;;
20241;SDS011;10279;46.388;8.116;2023-11-19T14:47:27;2.90;;;2.70;;
20241;SDS011;10279;46.388;8.116;2023-11-19T14:49:55;3.83;;;2.77;;
20241;SDS011;10279;46.388;8.116;2023-11-19T14:52:22;2.83;;;2.63;;
20241;SDS011;10279;46.388;8.116;2023-11-19T14:54:50;3.30;;;3.00;;
20241;SDS011;10279;46.388;8.116;2023-11-19T14:57:20;3.77;;;3.03;;
20241;SDS011;10279;46.388;8.116;2023-11-19T14:59:47;3.37;;;3.07;;
20241;SDS011;10279;46.388;8.116;2023-11-19T15:02:14;3.57;;;2.90;;
20241;SDS011;10279;46.388;8.116;2023-11-19T15:04:41;3.67;;;3.17;;
20241;SDS011;10279;46.388;8.116;2023-11-19T15:07:11;4.70;;;4.20;;
20241;SDS011;10279;46.388;8.116;2023-11-19T15:09:38;4.17;;;3.77;;
20241;SDS011;10279;46.388;8.116;2023-11-19T15:12:05;4.70;;;4.23;;
20241;SDS011;10279;46.388;8.116;2023-11-19T15:14:33;3.57;;;3.17;;
20241;SDS011;10279;46.388;8.116;2023-11-19T15:17:00;3.37;;;3.07;;
20241;SDS011;10279;46.388;8.116;2023-11-19T15:19:27;4.40;;;3.83;;
20241;SDS011;10279;46.388;8.116;2023-11-19T15:21:54;4.20;;;3.60;;
20241;SDS011;10279;46.388;8.116;2023-11-19T15:24:21;3.73;;;3.37;;
20241;SDS011;10279;46.388;8.116;2023-11-19T15:26:49;3.90;;;2.70;;
20241;SDS011;10279;46.388;8.116;2023-11-19T15:29:16;2.27;;;2.07;;
20241;SDS011;10279;46.388;8.116;2023-11-19T15:31:43;2.33;;;2.13;;